sensor_id;sensor_type;location;lat;lon;timestamp;temperature;humidity
78366;HTU21D;67641;59.864;30.464;2023-04-29T00:01:03;11.33;71.87
78366;HTU21D;67641;59.864;30.464;2023-04-29T00:03:30;11.37;71.10
78366;HTU21D;67641;59.864;30.464;2023-04-29T00:06:03;11.41;71.38
78366;HTU21D;67641;59.864;30.464;2023-04-29T00:10:56;11.37;72.69
78366;HTU21D;67641;59.864;30.464;2023-04-29T00:13:23;11.33;72.22
78366;HTU21D;67641;59.864;30.464;2023-04-29T00:15:51;11.29;72.29
78366;HTU21D;67641;59.864;30.464;2023-04-29T00:18:18;11.29;71.90
78366;HTU21D;67641;59.864;30.464;2023-04-29T00:20:44;11.33;71.66
78366;HTU21D;67641;59.864;30.464;2023-04-29T00:23:11;11.32;72.10
78366;HTU21D;67641;59.864;30.464;2023-04-29T00:25:38;11.38;72.06
78366;HTU21D;67641;59.864;30.464;2023-04-29T00:28:05;11.42;71.78
78366;HTU21D;67641;59.864;30.464;2023-04-29T00:30:57;11.47;71.50
78366;HTU21D;67641;59.864;30.464;2023-04-29T00:33:24;11.52;71.10
78366;HTU21D;67641;59.864;30.464;2023-04-29T00:35:50;11.52;71.11
78366;HTU21D;67641;59.864;30.464;2023-04-29T00:38:17;11.44;71.99
78366;HTU21D;67641;59.864;30.464;2023-04-29T00:40:44;11.34;72.58
78366;HTU21D;67641;59.864;30.464;2023-04-29T00:43:11;11.37;72.73
78366;HTU21D;67641;59.864;30.464;2023-04-29T00:45:38;11.39;72.99
78366;HTU21D;67641;59.864;30.464;2023-04-29T00:48:05;11.38;73.00
78366;HTU21D;67641;59.864;30.464;2023-04-29T00:52:29;11.40;72.51
78366;HTU21D;67641;59.864;30.464;2023-04-29T00:54:57;11.40;72.77
78366;HTU21D;67641;59.864;30.464;2023-04-29T00:57:25;11.42;72.25
78366;HTU21D;67641;59.864;30.464;2023-04-29T00:59:56;11.43;71.82
78366;HTU21D;67641;59.864;30.464;2023-04-29T01:02:25;11.44;72.77
78366;HTU21D;67641;59.864;30.464;2023-04-29T01:04:52;11.49;72.87
78366;HTU21D;67641;59.864;30.464;2023-04-29T01:13:16;11.53;73.79
78366;HTU21D;67641;59.864;30.464;2023-04-29T01:18:25;11.45;74.13
78366;HTU21D;67641;59.864;30.464;2023-04-29T01:20:55;11.51;74.31
78366;HTU21D;67641;59.864;30.464;2023-04-29T01:23:28;11.57;74.73
78366;HTU21D;67641;59.864;30.464;2023-04-29T01:25:56;11.58;74.47
78366;HTU21D;67641;59.864;30.464;2023-04-29T01:35:50;11.67;73.90
78366;HTU21D;67641;59.864;30.464;2023-04-29T01:41:17;11.72;73.06
78366;HTU21D;67641;59.864;30.464;2023-04-29T01:43:46;11.75;72.77
78366;HTU21D;67641;59.864;30.464;2023-04-29T01:46:16;11.85;72.45
78366;HTU21D;67641;59.864;30.464;2023-04-29T01:48:46;11.86;73.44
78366;HTU21D;67641;59.864;30.464;2023-04-29T01:53:17;11.79;74.12
78366;HTU21D;67641;59.864;30.464;2023-04-29T01:55:44;11.76;73.83
78366;HTU21D;67641;59.864;30.464;2023-04-29T01:58:10;11.76;73.41
78366;HTU21D;67641;59.864;30.464;2023-04-29T02:00:37;11.78;74.25
78366;HTU21D;67641;59.864;30.464;2023-04-29T02:03:04;11.74;74.71
78366;HTU21D;67641;59.864;30.464;2023-04-29T02:05:31;11.70;74.92
78366;HTU21D;67641;59.864;30.464;2023-04-29T02:07:59;11.77;75.19
78366;HTU21D;67641;59.864;30.464;2023-04-29T02:10:26;11.76;75.86
78366;HTU21D;67641;59.864;30.464;2023-04-29T02:14:29;11.72;76.64
78366;HTU21D;67641;59.864;30.464;2023-04-29T02:16:56;11.77;76.44
78366;HTU21D;67641;59.864;30.464;2023-04-29T02:19:23;11.76;77.24
78366;HTU21D;67641;59.864;30.464;2023-04-29T02:21:50;11.70;78.13
78366;HTU21D;67641;59.864;30.464;2023-04-29T02:24:17;11.64;77.82
78366;HTU21D;67641;59.864;30.464;2023-04-29T02:26:43;11.61;78.69
78366;HTU21D;67641;59.864;30.464;2023-04-29T02:29:10;11.61;78.93
78366;HTU21D;67641;59.864;30.464;2023-04-29T02:31:37;11.63;78.63
78366;HTU21D;67641;59.864;30.464;2023-04-29T02:34:27;11.64;79.13
78366;HTU21D;67641;59.864;30.464;2023-04-29T02:36:53;11.71;79.13
78366;HTU21D;67641;59.864;30.464;2023-04-29T02:39:20;11.68;79.27
78366;HTU21D;67641;59.864;30.464;2023-04-29T02:41:47;11.67;79.69
78366;HTU21D;67641;59.864;30.464;2023-04-29T02:44:14;11.59;79.94
78366;HTU21D;67641;59.864;30.464;2023-04-29T02:46:41;11.58;79.66
78366;HTU21D;67641;59.864;30.464;2023-04-29T02:49:11;11.57;79.64
78366;HTU21D;67641;59.864;30.464;2023-04-29T02:51:39;11.53;78.92
78366;HTU21D;67641;59.864;30.464;2023-04-29T02:56:24;11.57;78.63
78366;HTU21D;67641;59.864;30.464;2023-04-29T02:58:54;11.58;78.57
78366;HTU21D;67641;59.864;30.464;2023-04-29T03:01:21;11.57;78.62
78366;HTU21D;67641;59.864;30.464;2023-04-29T03:03:49;11.57;78.43
78366;HTU21D;67641;59.864;30.464;2023-04-29T03:06:16;11.59;78.88
78366;HTU21D;67641;59.864;30.464;2023-04-29T03:08:42;11.60;79.06
78366;HTU21D;67641;59.864;30.464;2023-04-29T03:11:09;11.54;78.88
78366;HTU21D;67641;59.864;30.464;2023-04-29T03:13:36;11.56;79.30
78366;HTU21D;67641;59.864;30.464;2023-04-29T03:16:21;11.52;79.34
78366;HTU21D;67641;59.864;30.464;2023-04-29T03:18:49;11.53;79.09
78366;HTU21D;67641;59.864;30.464;2023-04-29T03:21:16;11.48;79.28
78366;HTU21D;67641;59.864;30.464;2023-04-29T03:23:43;11.43;79.69
78366;HTU21D;67641;59.864;30.464;2023-04-29T03:26:10;11.44;79.30
78366;HTU21D;67641;59.864;30.464;2023-04-29T03:28:37;11.46;79.20
78366;HTU21D;67641;59.864;30.464;2023-04-29T03:31:04;11.47;78.60
78366;HTU21D;67641;59.864;30.464;2023-04-29T03:33:30;11.46;78.69
78366;HTU21D;67641;59.864;30.464;2023-04-29T03:36:19;11.52;78.46
78366;HTU21D;67641;59.864;30.464;2023-04-29T03:38:46;11.57;78.65
78366;HTU21D;67641;59.864;30.464;2023-04-29T03:41:13;11.58;77.33
78366;HTU21D;67641;59.864;30.464;2023-04-29T03:43:40;11.57;77.37
78366;HTU21D;67641;59.864;30.464;2023-04-29T03:46:09;11.61;77.40
78366;HTU21D;67641;59.864;30.464;2023-04-29T03:48:36;11.61;77.57
78366;HTU21D;67641;59.864;30.464;2023-04-29T03:51:03;11.63;78.02
78366;HTU21D;67641;59.864;30.464;2023-04-29T03:53:30;11.66;78.18
78366;HTU21D;67641;59.864;30.464;2023-04-29T03:57:01;11.62;77.95
78366;HTU21D;67641;59.864;30.464;2023-04-29T03:59:30;11.66;78.37
78366;HTU21D;67641;59.864;30.464;2023-04-29T04:01:57;11.72;77.56
78366;HTU21D;67641;59.864;30.464;2023-04-29T04:04:24;11.73;77.95
78366;HTU21D;67641;59.864;30.464;2023-04-29T04:06:51;11.74;77.56
78366;HTU21D;67641;59.864;30.464;2023-04-29T04:09:18;11.78;77.28
78366;HTU21D;67641;59.864;30.464;2023-04-29T04:11:45;11.79;77.76
78366;HTU21D;67641;59.864;30.464;2023-04-29T04:14:12;11.82;75.67
78366;HTU21D;67641;59.864;30.464;2023-04-29T04:17:59;11.85;76.91
78366;HTU21D;67641;59.864;30.464;2023-04-29T04:20:26;11.91;71.48
78366;HTU21D;67641;59.864;30.464;2023-04-29T04:22:52;11.98;70.03
78366;HTU21D;67641;59.864;30.464;2023-04-29T04:25:20;12.03;70.55
78366;HTU21D;67641;59.864;30.464;2023-04-29T04:27:47;12.11;68.88
78366;HTU21D;67641;59.864;30.464;2023-04-29T04:30:14;12.16;68.02
78366;HTU21D;67641;59.864;30.464;2023-04-29T04:32:43;12.30;69.48
78366;HTU21D;67641;59.864;30.464;2023-04-29T04:35:10;12.43;68.58
78366;HTU21D;67641;59.864;30.464;2023-04-29T04:39:10;12.58;66.39
78366;HTU21D;67641;59.864;30.464;2023-04-29T04:41:37;12.63;65.47
78366;HTU21D;67641;59.864;30.464;2023-04-29T04:44:04;12.64;66.58
78366;HTU21D;67641;59.864;30.464;2023-04-29T04:46:31;12.70;65.88
78366;HTU21D;67641;59.864;30.464;2023-04-29T04:48:59;12.78;64.30
78366;HTU21D;67641;59.864;30.464;2023-04-29T04:51:25;12.81;64.66
78366;HTU21D;67641;59.864;30.464;2023-04-29T04:53:54;12.94;66.53
78366;HTU21D;67641;59.864;30.464;2023-04-29T04:56:21;13.08;70.39
78366;HTU21D;67641;59.864;30.464;2023-04-29T04:59:06;13.11;72.50
78366;HTU21D;67641;59.864;30.464;2023-04-29T05:01:33;13.20;72.18
78366;HTU21D;67641;59.864;30.464;2023-04-29T05:04:00;13.23;70.08
78366;HTU21D;67641;59.864;30.464;2023-04-29T05:06:28;13.26;69.64
78366;HTU21D;67641;59.864;30.464;2023-04-29T05:08:55;13.27;69.03
78366;HTU21D;67641;59.864;30.464;2023-04-29T05:11:21;13.33;68.78
78366;HTU21D;67641;59.864;30.464;2023-04-29T05:13:48;13.37;70.41
78366;HTU21D;67641;59.864;30.464;2023-04-29T05:16:15;13.53;72.98
78366;HTU21D;67641;59.864;30.464;2023-04-29T05:20:19;13.63;69.11
78366;HTU21D;67641;59.864;30.464;2023-04-29T05:22:48;13.63;69.29
78366;HTU21D;67641;59.864;30.464;2023-04-29T05:25:16;13.74;74.44
78366;HTU21D;67641;59.864;30.464;2023-04-29T05:27:42;13.74;68.10
78366;HTU21D;67641;59.864;30.464;2023-04-29T05:30:09;13.71;65.28
78366;HTU21D;67641;59.864;30.464;2023-04-29T05:32:36;13.76;66.86
78366;HTU21D;67641;59.864;30.464;2023-04-29T05:35:03;13.85;67.06
78366;HTU21D;67641;59.864;30.464;2023-04-29T05:37:31;13.94;68.53
78366;HTU21D;67641;59.864;30.464;2023-04-29T05:40:16;14.00;68.58
78366;HTU21D;67641;59.864;30.464;2023-04-29T05:42:43;14.07;70.53
78366;HTU21D;67641;59.864;30.464;2023-04-29T05:45:09;14.11;68.83
78366;HTU21D;67641;59.864;30.464;2023-04-29T05:47:37;14.08;69.03
78366;HTU21D;67641;59.864;30.464;2023-04-29T05:50:04;14.08;69.21
78366;HTU21D;67641;59.864;30.464;2023-04-29T05:52:31;14.07;69.12
78366;HTU21D;67641;59.864;30.464;2023-04-29T05:54:59;14.12;69.97
78366;HTU21D;67641;59.864;30.464;2023-04-29T05:57:25;14.21;69.33
78366;HTU21D;67641;59.864;30.464;2023-04-29T06:02:17;14.41;71.23
78366;HTU21D;67641;59.864;30.464;2023-04-29T06:04:44;14.53;70.98
78366;HTU21D;67641;59.864;30.464;2023-04-29T06:07:13;14.59;67.57
78366;HTU21D;67641;59.864;30.464;2023-04-29T06:09:39;14.60;68.62
78366;HTU21D;67641;59.864;30.464;2023-04-29T06:12:07;14.57;68.18
78366;HTU21D;67641;59.864;30.464;2023-04-29T06:14:34;14.59;65.72
78366;HTU21D;67641;59.864;30.464;2023-04-29T06:17:00;14.64;63.12
78366;HTU21D;67641;59.864;30.464;2023-04-29T06:19:27;14.66;63.12
78366;HTU21D;67641;59.864;30.464;2023-04-29T06:23:51;14.36;66.33
78366;HTU21D;67641;59.864;30.464;2023-04-29T06:26:21;14.30;67.24
78366;HTU21D;67641;59.864;30.464;2023-04-29T06:28:49;14.37;62.57
78366;HTU21D;67641;59.864;30.464;2023-04-29T06:31:15;14.42;63.02
78366;HTU21D;67641;59.864;30.464;2023-04-29T06:33:42;14.43;64.56
78366;HTU21D;67641;59.864;30.464;2023-04-29T06:36:09;14.48;62.92
78366;HTU21D;67641;59.864;30.464;2023-04-29T06:38:36;14.51;61.98
78366;HTU21D;67641;59.864;30.464;2023-04-29T06:41:03;14.43;62.26
78366;HTU21D;67641;59.864;30.464;2023-04-29T06:46:06;14.17;56.92
78366;HTU21D;67641;59.864;30.464;2023-04-29T06:48:35;14.06;61.95
78366;HTU21D;67641;59.864;30.464;2023-04-29T06:51:02;13.89;59.85
78366;HTU21D;67641;59.864;30.464;2023-04-29T06:53:29;13.75;61.59
78366;HTU21D;67641;59.864;30.464;2023-04-29T06:55:56;13.58;64.14
78366;HTU21D;67641;59.864;30.464;2023-04-29T06:58:23;13.54;63.66
78366;HTU21D;67641;59.864;30.464;2023-04-29T07:00:50;13.50;65.11
78366;HTU21D;67641;59.864;30.464;2023-04-29T07:03:17;13.51;67.50
78366;HTU21D;67641;59.864;30.464;2023-04-29T07:08:15;13.54;70.53
78366;HTU21D;67641;59.864;30.464;2023-04-29T07:10:42;13.54;69.75
78366;HTU21D;67641;59.864;30.464;2023-04-29T07:13:09;13.55;71.81
78366;HTU21D;67641;59.864;30.464;2023-04-29T07:15:36;13.55;71.49
78366;HTU21D;67641;59.864;30.464;2023-04-29T07:18:03;13.64;71.41
78366;HTU21D;67641;59.864;30.464;2023-04-29T07:20:31;13.70;71.04
78366;HTU21D;67641;59.864;30.464;2023-04-29T07:22:58;13.78;70.61
78366;HTU21D;67641;59.864;30.464;2023-04-29T07:25:28;13.83;69.30
78366;HTU21D;67641;59.864;30.464;2023-04-29T07:29:28;13.84;68.60
78366;HTU21D;67641;59.864;30.464;2023-04-29T07:31:54;13.78;68.88
78366;HTU21D;67641;59.864;30.464;2023-04-29T07:34:21;13.70;67.99
78366;HTU21D;67641;59.864;30.464;2023-04-29T07:36:48;13.68;65.49
78366;HTU21D;67641;59.864;30.464;2023-04-29T07:39:15;13.73;67.43
78366;HTU21D;67641;59.864;30.464;2023-04-29T07:41:45;13.79;68.82
78366;HTU21D;67641;59.864;30.464;2023-04-29T07:44:15;13.80;70.55
78366;HTU21D;67641;59.864;30.464;2023-04-29T07:46:42;13.75;68.82
78366;HTU21D;67641;59.864;30.464;2023-04-29T07:50:40;13.80;72.03
78366;HTU21D;67641;59.864;30.464;2023-04-29T07:53:08;13.78;69.10
78366;HTU21D;67641;59.864;30.464;2023-04-29T07:55:37;13.76;67.27
78366;HTU21D;67641;59.864;30.464;2023-04-29T07:58:05;13.76;62.28
78366;HTU21D;67641;59.864;30.464;2023-04-29T08:00:36;13.74;62.21
78366;HTU21D;67641;59.864;30.464;2023-04-29T08:03:05;13.68;60.88
78366;HTU21D;67641;59.864;30.464;2023-04-29T08:05:34;13.62;61.99
78366;HTU21D;67641;59.864;30.464;2023-04-29T08:08:02;13.55;63.11
78366;HTU21D;67641;59.864;30.464;2023-04-29T08:12:09;13.48;64.30
78366;HTU21D;67641;59.864;30.464;2023-04-29T08:14:37;13.49;64.57
78366;HTU21D;67641;59.864;30.464;2023-04-29T08:17:04;13.47;65.61
78366;HTU21D;67641;59.864;30.464;2023-04-29T08:19:33;13.40;61.80
78366;HTU21D;67641;59.864;30.464;2023-04-29T08:22:00;13.32;62.55
78366;HTU21D;67641;59.864;30.464;2023-04-29T08:24:32;13.29;63.31
78366;HTU21D;67641;59.864;30.464;2023-04-29T08:27:00;13.26;64.92
78366;HTU21D;67641;59.864;30.464;2023-04-29T08:32:56;12.94;65.29
78366;HTU21D;67641;59.864;30.464;2023-04-29T08:35:22;12.78;67.77
78366;HTU21D;67641;59.864;30.464;2023-04-29T08:37:49;12.63;70.18
78366;HTU21D;67641;59.864;30.464;2023-04-29T08:40:18;12.43;70.99
78366;HTU21D;67641;59.864;30.464;2023-04-29T08:42:47;12.26;72.74
78366;HTU21D;67641;59.864;30.464;2023-04-29T08:45:18;12.06;73.22
78366;HTU21D;67641;59.864;30.464;2023-04-29T08:47:46;11.99;72.83
78366;HTU21D;67641;59.864;30.464;2023-04-29T08:50:14;11.88;74.60
78366;HTU21D;67641;59.864;30.464;2023-04-29T08:54:35;11.81;76.22
78366;HTU21D;67641;59.864;30.464;2023-04-29T08:57:03;11.84;76.57
78366;HTU21D;67641;59.864;30.464;2023-04-29T08:59:31;11.82;76.66
78366;HTU21D;67641;59.864;30.464;2023-04-29T09:01:59;11.75;74.71
78366;HTU21D;67641;59.864;30.464;2023-04-29T09:04:41;11.76;75.34
78366;HTU21D;67641;59.864;30.464;2023-04-29T09:07:13;11.68;76.04
78366;HTU21D;67641;59.864;30.464;2023-04-29T09:09:40;11.67;77.60
78366;HTU21D;67641;59.864;30.464;2023-04-29T09:12:07;11.72;78.31
78366;HTU21D;67641;59.864;30.464;2023-04-29T09:16:49;11.84;77.45
78366;HTU21D;67641;59.864;30.464;2023-04-29T09:19:33;11.90;77.17
78366;HTU21D;67641;59.864;30.464;2023-04-29T09:22:01;11.99;77.40
78366;HTU21D;67641;59.864;30.464;2023-04-29T09:24:29;12.08;76.53
78366;HTU21D;67641;59.864;30.464;2023-04-29T09:26:57;12.14;76.06
78366;HTU21D;67641;59.864;30.464;2023-04-29T09:29:24;12.16;73.67
78366;HTU21D;67641;59.864;30.464;2023-04-29T09:31:51;12.20;74.40
78366;HTU21D;67641;59.864;30.464;2023-04-29T09:36:51;12.31;74.96
78366;HTU21D;67641;59.864;30.464;2023-04-29T09:39:24;12.30;74.11
78366;HTU21D;67641;59.864;30.464;2023-04-29T09:44:22;12.36;72.04
78366;HTU21D;67641;59.864;30.464;2023-04-29T09:47:03;12.45;69.33
78366;HTU21D;67641;59.864;30.464;2023-04-29T09:49:32;12.48;70.14
78366;HTU21D;67641;59.864;30.464;2023-04-29T09:52:08;12.59;70.17
78366;HTU21D;67641;59.864;30.464;2023-04-29T09:54:37;12.75;73.02
78366;HTU21D;67641;59.864;30.464;2023-04-29T09:57:43;12.76;72.62
78366;HTU21D;67641;59.864;30.464;2023-04-29T10:00:12;12.81;72.42
78366;HTU21D;67641;59.864;30.464;2023-04-29T10:02:41;12.89;72.79
78366;HTU21D;67641;59.864;30.464;2023-04-29T10:05:09;12.92;73.72
78366;HTU21D;67641;59.864;30.464;2023-04-29T10:07:38;13.03;73.20
78366;HTU21D;67641;59.864;30.464;2023-04-29T10:10:06;13.08;71.91
78366;HTU21D;67641;59.864;30.464;2023-04-29T10:12:36;13.21;73.37
78366;HTU21D;67641;59.864;30.464;2023-04-29T10:18:34;13.36;68.95
78366;HTU21D;67641;59.864;30.464;2023-04-29T10:21:05;13.49;68.56
78366;HTU21D;67641;59.864;30.464;2023-04-29T10:23:33;13.58;66.62
78366;HTU21D;67641;59.864;30.464;2023-04-29T10:26:00;13.56;65.45
78366;HTU21D;67641;59.864;30.464;2023-04-29T10:28:32;13.60;64.94
78366;HTU21D;67641;59.864;30.464;2023-04-29T10:31:01;13.66;65.25
78366;HTU21D;67641;59.864;30.464;2023-04-29T10:33:32;13.70;66.38
78366;HTU21D;67641;59.864;30.464;2023-04-29T10:38:45;13.63;65.39
78366;HTU21D;67641;59.864;30.464;2023-04-29T10:41:24;13.66;64.37
78366;HTU21D;67641;59.864;30.464;2023-04-29T10:43:52;13.76;64.04
78366;HTU21D;67641;59.864;30.464;2023-04-29T10:46:21;13.82;61.23
78366;HTU21D;67641;59.864;30.464;2023-04-29T10:48:49;13.84;61.63
78366;HTU21D;67641;59.864;30.464;2023-04-29T10:51:28;13.97;65.28
78366;HTU21D;67641;59.864;30.464;2023-04-29T10:54:11;14.20;65.61
78366;HTU21D;67641;59.864;30.464;2023-04-29T11:02:05;14.42;61.35
78366;HTU21D;67641;59.864;30.464;2023-04-29T11:04:31;14.51;63.45
78366;HTU21D;67641;59.864;30.464;2023-04-29T11:06:59;14.66;62.05
78366;HTU21D;67641;59.864;30.464;2023-04-29T11:09:29;14.81;62.92
78366;HTU21D;67641;59.864;30.464;2023-04-29T11:12:00;14.88;62.95
78366;HTU21D;67641;59.864;30.464;2023-04-29T11:14:36;14.99;63.15
78366;HTU21D;67641;59.864;30.464;2023-04-29T11:17:10;15.02;62.38
78366;HTU21D;67641;59.864;30.464;2023-04-29T11:22:29;15.12;63.56
78366;HTU21D;67641;59.864;30.464;2023-04-29T11:25:07;15.10;61.15
78366;HTU21D;67641;59.864;30.464;2023-04-29T11:27:36;15.06;60.90
78366;HTU21D;67641;59.864;30.464;2023-04-29T11:30:05;15.09;61.20
78366;HTU21D;67641;59.864;30.464;2023-04-29T11:45:56;14.89;58.59
78366;HTU21D;67641;59.864;30.464;2023-04-29T11:48:24;14.92;57.09
78366;HTU21D;67641;59.864;30.464;2023-04-29T11:50:58;14.85;59.15
78366;HTU21D;67641;59.864;30.464;2023-04-29T11:53:25;14.83;60.62
78366;HTU21D;67641;59.864;30.464;2023-04-29T11:55:56;14.83;59.80
78366;HTU21D;67641;59.864;30.464;2023-04-29T11:58:23;14.81;61.96
78366;HTU21D;67641;59.864;30.464;2023-04-29T12:00:50;14.83;60.71
78366;HTU21D;67641;59.864;30.464;2023-04-29T12:03:20;14.98;63.72
78366;HTU21D;67641;59.864;30.464;2023-04-29T12:07:54;15.12;58.25
78366;HTU21D;67641;59.864;30.464;2023-04-29T12:10:21;15.11;57.77
78366;HTU21D;67641;59.864;30.464;2023-04-29T12:12:48;15.11;57.04
78366;HTU21D;67641;59.864;30.464;2023-04-29T12:15:16;15.09;53.85
78366;HTU21D;67641;59.864;30.464;2023-04-29T12:17:46;15.09;54.21
78366;HTU21D;67641;59.864;30.464;2023-04-29T12:20:13;15.12;52.35
78366;HTU21D;67641;59.864;30.464;2023-04-29T12:22:41;15.13;51.43
78366;HTU21D;67641;59.864;30.464;2023-04-29T12:25:10;15.15;51.58
78366;HTU21D;67641;59.864;30.464;2023-04-29T12:29:37;15.26;52.14
78366;HTU21D;67641;59.864;30.464;2023-04-29T12:32:04;15.36;51.87
78366;HTU21D;67641;59.864;30.464;2023-04-29T12:34:32;15.38;48.82
78366;HTU21D;67641;59.864;30.464;2023-04-29T12:36:59;15.41;50.88
78366;HTU21D;67641;59.864;30.464;2023-04-29T12:39:28;15.47;50.35
78366;HTU21D;67641;59.864;30.464;2023-04-29T12:41:57;15.40;53.78
78366;HTU21D;67641;59.864;30.464;2023-04-29T12:44:37;15.46;53.37
78366;HTU21D;67641;59.864;30.464;2023-04-29T12:47:08;15.51;51.24
78366;HTU21D;67641;59.864;30.464;2023-04-29T12:52:16;15.36;54.22
78366;HTU21D;67641;59.864;30.464;2023-04-29T12:54:43;15.22;54.63
78366;HTU21D;67641;59.864;30.464;2023-04-29T12:57:11;15.09;52.62
78366;HTU21D;67641;59.864;30.464;2023-04-29T12:59:39;15.00;52.95
78366;HTU21D;67641;59.864;30.464;2023-04-29T13:02:08;14.93;53.10
78366;HTU21D;67641;59.864;30.464;2023-04-29T13:04:35;14.78;55.03
78366;HTU21D;67641;59.864;30.464;2023-04-29T13:07:05;14.80;56.87
78366;HTU21D;67641;59.864;30.464;2023-04-29T13:09:32;14.77;56.10
78366;HTU21D;67641;59.864;30.464;2023-04-29T13:12:29;14.43;57.77
78366;HTU21D;67641;59.864;30.464;2023-04-29T13:14:56;14.28;58.93
78366;HTU21D;67641;59.864;30.464;2023-04-29T13:17:23;14.19;59.63
78366;HTU21D;67641;59.864;30.464;2023-04-29T13:19:51;14.13;61.47
78366;HTU21D;67641;59.864;30.464;2023-04-29T13:22:18;14.10;60.31
78366;HTU21D;67641;59.864;30.464;2023-04-29T13:24:45;14.14;60.08
78366;HTU21D;67641;59.864;30.464;2023-04-29T13:27:18;14.32;60.99
78366;HTU21D;67641;59.864;30.464;2023-04-29T13:32:41;14.70;60.22
78366;HTU21D;67641;59.864;30.464;2023-04-29T13:35:08;15.07;60.65
78366;HTU21D;67641;59.864;30.464;2023-04-29T13:37:36;15.17;57.84
78366;HTU21D;67641;59.864;30.464;2023-04-29T13:40:06;15.03;57.77
78366;HTU21D;67641;59.864;30.464;2023-04-29T13:42:34;14.85;58.89
78366;HTU21D;67641;59.864;30.464;2023-04-29T13:45:00;14.65;60.29
78366;HTU21D;67641;59.864;30.464;2023-04-29T13:47:30;14.49;61.06
78366;HTU21D;67641;59.864;30.464;2023-04-29T13:50:00;14.41;60.65
78366;HTU21D;67641;59.864;30.464;2023-04-29T13:54:08;14.37;60.69
78366;HTU21D;67641;59.864;30.464;2023-04-29T13:56:34;14.24;61.22
78366;HTU21D;67641;59.864;30.464;2023-04-29T13:59:01;14.30;62.86
78366;HTU21D;67641;59.864;30.464;2023-04-29T14:01:28;14.32;64.80
78366;HTU21D;67641;59.864;30.464;2023-04-29T14:03:54;14.27;63.71
78366;HTU21D;67641;59.864;30.464;2023-04-29T14:06:21;14.06;62.47
78366;HTU21D;67641;59.864;30.464;2023-04-29T14:08:48;13.93;62.67
78366;HTU21D;67641;59.864;30.464;2023-04-29T14:11:18;13.89;63.83
78366;HTU21D;67641;59.864;30.464;2023-04-29T14:14:06;13.79;64.70
78366;HTU21D;67641;59.864;30.464;2023-04-29T14:16:33;13.74;64.49
78366;HTU21D;67641;59.864;30.464;2023-04-29T14:19:00;13.68;65.37
78366;HTU21D;67641;59.864;30.464;2023-04-29T14:21:26;13.62;65.43
78366;HTU21D;67641;59.864;30.464;2023-04-29T14:23:53;13.55;65.74
78366;HTU21D;67641;59.864;30.464;2023-04-29T14:26:20;13.54;66.63
78366;HTU21D;67641;59.864;30.464;2023-04-29T14:28:46;13.54;65.74
78366;HTU21D;67641;59.864;30.464;2023-04-29T14:31:13;13.63;65.53
78366;HTU21D;67641;59.864;30.464;2023-04-29T14:34:08;13.69;66.51
78366;HTU21D;67641;59.864;30.464;2023-04-29T14:37:25;13.59;65.56
78366;HTU21D;67641;59.864;30.464;2023-04-29T14:39:52;13.49;65.02
78366;HTU21D;67641;59.864;30.464;2023-04-29T14:42:19;13.50;66.14
78366;HTU21D;67641;59.864;30.464;2023-04-29T14:44:46;13.47;66.38
78366;HTU21D;67641;59.864;30.464;2023-04-29T14:47:12;13.51;65.74
78366;HTU21D;67641;59.864;30.464;2023-04-29T14:49:39;13.46;65.57
78366;HTU21D;67641;59.864;30.464;2023-04-29T14:54:48;13.35;66.53
78366;HTU21D;67641;59.864;30.464;2023-04-29T14:57:16;13.35;66.45
78366;HTU21D;67641;59.864;30.464;2023-04-29T14:59:48;13.39;66.36
78366;HTU21D;67641;59.864;30.464;2023-04-29T15:02:15;13.37;67.09
78366;HTU21D;67641;59.864;30.464;2023-04-29T15:04:45;13.34;67.27
78366;HTU21D;67641;59.864;30.464;2023-04-29T15:07:14;13.30;68.23
78366;HTU21D;67641;59.864;30.464;2023-04-29T15:09:42;13.30;66.90
78366;HTU21D;67641;59.864;30.464;2023-04-29T15:14:50;13.29;66.94
78366;HTU21D;67641;59.864;30.464;2023-04-29T15:17:19;13.26;66.58
78366;HTU21D;67641;59.864;30.464;2023-04-29T15:19:46;13.30;67.92
78366;HTU21D;67641;59.864;30.464;2023-04-29T15:22:13;13.31;67.07
78366;HTU21D;67641;59.864;30.464;2023-04-29T15:24:40;13.23;66.81
78366;HTU21D;67641;59.864;30.464;2023-04-29T15:27:07;13.12;68.37
78366;HTU21D;67641;59.864;30.464;2023-04-29T15:29:34;13.02;68.35
78366;HTU21D;67641;59.864;30.464;2023-04-29T15:32:03;12.95;68.66
78366;HTU21D;67641;59.864;30.464;2023-04-29T15:37:03;12.87;67.21
78366;HTU21D;67641;59.864;30.464;2023-04-29T15:39:30;12.80;66.34
78366;HTU21D;67641;59.864;30.464;2023-04-29T15:41:57;12.84;67.39
78366;HTU21D;67641;59.864;30.464;2023-04-29T15:44:24;12.91;65.63
78366;HTU21D;67641;59.864;30.464;2023-04-29T15:46:51;12.97;65.30
78366;HTU21D;67641;59.864;30.464;2023-04-29T15:49:18;12.97;65.15
78366;HTU21D;67641;59.864;30.464;2023-04-29T15:51:45;12.97;65.39
78366;HTU21D;67641;59.864;30.464;2023-04-29T15:54:15;12.97;65.69
78366;HTU21D;67641;59.864;30.464;2023-04-29T15:59:01;13.06;65.02
78366;HTU21D;67641;59.864;30.464;2023-04-29T16:01:28;13.10;65.75
78366;HTU21D;67641;59.864;30.464;2023-04-29T16:03:55;13.15;64.57
78366;HTU21D;67641;59.864;30.464;2023-04-29T16:06:23;13.19;63.72
78366;HTU21D;67641;59.864;30.464;2023-04-29T16:08:50;13.20;64.89
78366;HTU21D;67641;59.864;30.464;2023-04-29T16:11:20;13.19;64.75
78366;HTU21D;67641;59.864;30.464;2023-04-29T16:13:47;13.24;63.21
78366;HTU21D;67641;59.864;30.464;2023-04-29T16:16:16;13.26;63.05
78366;HTU21D;67641;59.864;30.464;2023-04-29T16:20:37;13.19;61.89
78366;HTU21D;67641;59.864;30.464;2023-04-29T16:23:04;13.16;62.41
78366;HTU21D;67641;59.864;30.464;2023-04-29T16:25:31;13.17;63.04
78366;HTU21D;67641;59.864;30.464;2023-04-29T16:28:01;13.17;64.30
78366;HTU21D;67641;59.864;30.464;2023-04-29T16:30:28;13.12;64.28
78366;HTU21D;67641;59.864;30.464;2023-04-29T16:32:54;13.11;64.98
78366;HTU21D;67641;59.864;30.464;2023-04-29T16:35:21;13.03;66.28
78366;HTU21D;67641;59.864;30.464;2023-04-29T16:37:52;12.97;66.93
78366;HTU21D;67641;59.864;30.464;2023-04-29T16:41:47;12.87;67.53
78366;HTU21D;67641;59.864;30.464;2023-04-29T16:44:19;12.81;67.75
78366;HTU21D;67641;59.864;30.464;2023-04-29T16:46:45;12.74;67.17
78366;HTU21D;67641;59.864;30.464;2023-04-29T16:49:13;12.69;67.97
78366;HTU21D;67641;59.864;30.464;2023-04-29T16:51:40;12.58;68.74
78366;HTU21D;67641;59.864;30.464;2023-04-29T16:54:06;12.50;68.86
78366;HTU21D;67641;59.864;30.464;2023-04-29T16:56:33;12.46;68.55
78366;HTU21D;67641;59.864;30.464;2023-04-29T16:58:59;12.40;68.95
78366;HTU21D;67641;59.864;30.464;2023-04-29T17:02:59;12.40;68.84
78366;HTU21D;67641;59.864;30.464;2023-04-29T17:05:26;12.37;68.54
78366;HTU21D;67641;59.864;30.464;2023-04-29T17:07:53;12.32;69.54